sensor_id;sensor_type;location;lat;lon;timestamp;P1;durP1;ratioP1;P2;durP2;ratioP2
11743;SDS011;5929;51.906;7.674;2022-12-20T02:00:18;5.63;;;2.00;;
11743;SDS011;5929;51.906;7.674;2022-12-20T02:02:46;5.50;;;2.80;;
11743;SDS011;5929;51.906;7.674;2022-12-20T02:05:15;5.68;;;2.42;;
11743;SDS011;5929;51.906;7.674;2022-12-20T02:07:44;5.18;;;2.00;;
11743;SDS011;5929;51.906;7.674;2022-12-20T02:10:16;6.95;;;2.03;;
11743;SDS011;5929;51.906;7.674;2022-12-20T02:12:44;6.78;;;2.10;;
11743;SDS011;5929;51.906;7.674;2022-12-20T02:15:27;5.18;;;2.10;;
11743;SDS011;5929;51.906;7.674;2022-12-20T02:18:07;4.47;;;2.10;;
11743;SDS011;5929;51.906;7.674;2022-12-20T02:20:49;5.40;;;2.05;;
11743;SDS011;5929;51.906;7.674;2022-12-20T02:23:52;6.18;;;2.10;;
11743;SDS011;5929;51.906;7.674;2022-12-20T02:29:58;7.57;;;2.55;;
11743;SDS011;5929;51.906;7.674;2022-12-20T02:32:35;6.85;;;2.30;;
11743;SDS011;5929;51.906;7.674;2022-12-20T02:35:04;7.35;;;2.00;;
11743;SDS011;5929;51.906;7.674;2022-12-20T02:37:35;5.25;;;2.33;;
11743;SDS011;5929;51.906;7.674;2022-12-20T02:40:02;5.03;;;2.05;;
11743;SDS011;5929;51.906;7.674;2022-12-20T02:42:31;6.53;;;1.90;;
11743;SDS011;5929;51.906;7.674;2022-12-20T02:45:00;6.22;;;2.42;;
11743;SDS011;5929;51.906;7.674;2022-12-20T02:47:40;5.78;;;1.95;;
11743;SDS011;5929;51.906;7.674;2022-12-20T02:50:13;5.47;;;2.70;;
11743;SDS011;5929;51.906;7.674;2022-12-20T02:52:42;6.97;;;2.30;;
11743;SDS011;5929;51.906;7.674;2022-12-20T02:55:09;6.10;;;2.35;;
11743;SDS011;5929;51.906;7.674;2022-12-20T02:57:37;5.28;;;2.22;;
11743;SDS011;5929;51.906;7.674;2022-12-20T03:00:12;5.65;;;2.22;;
11743;SDS011;5929;51.906;7.674;2022-12-20T03:02:42;5.53;;;2.15;;
11743;SDS011;5929;51.906;7.674;2022-12-20T03:05:27;4.43;;;2.05;;
11743;SDS011;5929;51.906;7.674;2022-12-20T03:07:54;4.22;;;1.88;;
11743;SDS011;5929;51.906;7.674;2022-12-20T03:10:21;6.35;;;2.10;;
11743;SDS011;5929;51.906;7.674;2022-12-20T03:12:49;4.75;;;2.00;;
11743;SDS011;5929;51.906;7.674;2022-12-20T03:15:17;4.63;;;2.25;;
11743;SDS011;5929;51.906;7.674;2022-12-20T03:17:44;7.90;;;2.42;;
11743;SDS011;5929;51.906;7.674;2022-12-20T03:20:11;6.38;;;2.03;;
11743;SDS011;5929;51.906;7.674;2022-12-20T03:22:37;6.32;;;2.35;;
11743;SDS011;5929;51.906;7.674;2022-12-20T03:25:07;5.50;;;2.25;;
11743;SDS011;5929;51.906;7.674;2022-12-20T03:27:34;5.15;;;2.58;;
11743;SDS011;5929;51.906;7.674;2022-12-20T03:30:01;5.85;;;2.20;;
11743;SDS011;5929;51.906;7.674;2022-12-20T03:32:30;4.35;;;2.10;;
11743;SDS011;5929;51.906;7.674;2022-12-20T03:34:57;6.15;;;2.22;;
11743;SDS011;5929;51.906;7.674;2022-12-20T03:37:23;7.47;;;2.67;;
11743;SDS011;5929;51.906;7.674;2022-12-20T03:39:50;4.97;;;2.40;;
11743;SDS011;5929;51.906;7.674;2022-12-20T03:42:17;6.75;;;2.60;;
11743;SDS011;5929;51.906;7.674;2022-12-20T03:44:46;6.15;;;2.38;;
11743;SDS011;5929;51.906;7.674;2022-12-20T03:47:13;6.10;;;2.42;;
11743;SDS011;5929;51.906;7.674;2022-12-20T03:49:41;6.25;;;2.60;;
11743;SDS011;5929;51.906;7.674;2022-12-20T03:52:08;6.90;;;2.80;;
11743;SDS011;5929;51.906;7.674;2022-12-20T03:54:36;5.68;;;2.90;;
11743;SDS011;5929;51.906;7.674;2022-12-20T03:57:03;7.30;;;3.45;;
11743;SDS011;5929;51.906;7.674;2022-12-20T03:59:30;6.85;;;2.75;;
11743;SDS011;5929;51.906;7.674;2022-12-20T04:01:57;7.63;;;2.83;;
11743;SDS011;5929;51.906;7.674;2022-12-20T04:04:24;7.63;;;3.08;;
11743;SDS011;5929;51.906;7.674;2022-12-20T04:06:52;6.78;;;2.40;;
11743;SDS011;5929;51.906;7.674;2022-12-20T04:09:19;5.32;;;2.85;;
11743;SDS011;5929;51.906;7.674;2022-12-20T04:11:46;5.93;;;2.65;;
11743;SDS011;5929;51.906;7.674;2022-12-20T04:14:13;4.45;;;2.40;;
11743;SDS011;5929;51.906;7.674;2022-12-20T04:16:40;5.03;;;2.92;;
11743;SDS011;5929;51.906;7.674;2022-12-20T04:19:07;6.28;;;2.42;;
11743;SDS011;5929;51.906;7.674;2022-12-20T04:21:36;7.45;;;2.60;;
11743;SDS011;5929;51.906;7.674;2022-12-20T04:24:04;5.35;;;2.80;;
11743;SDS011;5929;51.906;7.674;2022-12-20T04:26:31;6.50;;;2.63;;
11743;SDS011;5929;51.906;7.674;2022-12-20T04:28:58;5.18;;;3.03;;
11743;SDS011;5929;51.906;7.674;2022-12-20T04:31:25;6.30;;;2.58;;
11743;SDS011;5929;51.906;7.674;2022-12-20T04:33:52;7.97;;;3.00;;
11743;SDS011;5929;51.906;7.674;2022-12-20T04:36:21;5.38;;;2.67;;
11743;SDS011;5929;51.906;7.674;2022-12-20T04:38:47;5.47;;;2.67;;
11743;SDS011;5929;51.906;7.674;2022-12-20T04:41:16;4.65;;;2.50;;
11743;SDS011;5929;51.906;7.674;2022-12-20T04:43:48;6.97;;;3.20;;
11743;SDS011;5929;51.906;7.674;2022-12-20T04:46:16;6.10;;;2.80;;
11743;SDS011;5929;51.906;7.674;2022-12-20T04:48:44;7.75;;;3.22;;
11743;SDS011;5929;51.906;7.674;2022-12-20T04:51:11;5.32;;;2.95;;
11743;SDS011;5929;51.906;7.674;2022-12-20T04:53:38;7.82;;;2.80;;
11743;SDS011;5929;51.906;7.674;2022-12-20T04:56:13;6.10;;;2.60;;
11743;SDS011;5929;51.906;7.674;2022-12-20T04:58:42;7.22;;;3.08;;
11743;SDS011;5929;51.906;7.674;2022-12-20T05:01:10;7.40;;;2.97;;
11743;SDS011;5929;51.906;7.674;2022-12-20T05:03:37;5.45;;;2.83;;
11743;SDS011;5929;51.906;7.674;2022-12-20T05:06:06;6.15;;;3.15;;
11743;SDS011;5929;51.906;7.674;2022-12-20T05:08:36;6.93;;;3.20;;
11743;SDS011;5929;51.906;7.674;2022-12-20T05:11:04;6.05;;;2.83;;
11743;SDS011;5929;51.906;7.674;2022-12-20T05:13:33;8.30;;;2.92;;
11743;SDS011;5929;51.906;7.674;2022-12-20T05:16:00;6.40;;;2.70;;
11743;SDS011;5929;51.906;7.674;2022-12-20T05:18:27;5.93;;;3.10;;
11743;SDS011;5929;51.906;7.674;2022-12-20T05:20:55;6.22;;;3.08;;
11743;SDS011;5929;51.906;7.674;2022-12-20T05:23:40;6.13;;;3.25;;
11743;SDS011;5929;51.906;7.674;2022-12-20T05:26:24;7.32;;;3.17;;
11743;SDS011;5929;51.906;7.674;2022-12-20T05:28:55;6.18;;;2.97;;
11743;SDS011;5929;51.906;7.674;2022-12-20T05:31:22;6.82;;;2.72;;
11743;SDS011;5929;51.906;7.674;2022-12-20T05:33:48;7.95;;;2.75;;
11743;SDS011;5929;51.906;7.674;2022-12-20T05:36:15;5.53;;;2.97;;
11743;SDS011;5929;51.906;7.674;2022-12-20T05:38:42;5.32;;;2.70;;
11743;SDS011;5929;51.906;7.674;2022-12-20T05:41:09;6.82;;;2.95;;
11743;SDS011;5929;51.906;7.674;2022-12-20T05:43:36;6.32;;;3.22;;
11743;SDS011;5929;51.906;7.674;2022-12-20T05:46:04;6.43;;;3.33;;
11743;SDS011;5929;51.906;7.674;2022-12-20T05:48:31;9.43;;;2.92;;
11743;SDS011;5929;51.906;7.674;2022-12-20T05:50:58;8.93;;;3.20;;
11743;SDS011;5929;51.906;7.674;2022-12-20T05:53:25;6.10;;;3.22;;
11743;SDS011;5929;51.906;7.674;2022-12-20T05:55:52;7.65;;;3.33;;
11743;SDS011;5929;51.906;7.674;2022-12-20T05:58:19;5.20;;;2.63;;
11743;SDS011;5929;51.906;7.674;2022-12-20T06:00:46;5.95;;;2.90;;
11743;SDS011;5929;51.906;7.674;2022-12-20T06:03:15;7.22;;;2.97;;
11743;SDS011;5929;51.906;7.674;2022-12-20T06:05:42;9.18;;;3.13;;
11743;SDS011;5929;51.906;7.674;2022-12-20T06:08:10;6.28;;;2.90;;
11743;SDS011;5929;51.906;7.674;2022-12-20T06:10:38;7.63;;;3.33;;
11743;SDS011;5929;51.906;7.674;2022-12-20T06:13:05;7.57;;;3.20;;
11743;SDS011;5929;51.906;7.674;2022-12-20T06:15:35;7.80;;;3.38;;
11743;SDS011;5929;51.906;7.674;2022-12-20T06:18:03;6.75;;;3.22;;
11743;SDS011;5929;51.906;7.674;2022-12-20T06:20:32;7.68;;;2.88;;
11743;SDS011;5929;51.906;7.674;2022-12-20T06:23:00;7.97;;;3.10;;
11743;SDS011;5929;51.906;7.674;2022-12-20T06:25:28;6.57;;;3.25;;
11743;SDS011;5929;51.906;7.674;2022-12-20T06:27:57;6.72;;;2.83;;
11743;SDS011;5929;51.906;7.674;2022-12-20T06:30:24;7.75;;;3.10;;
11743;SDS011;5929;51.906;7.674;2022-12-20T06:32:51;6.18;;;3.33;;
11743;SDS011;5929;51.906;7.674;2022-12-20T06:35:18;8.88;;;3.17;;
11743;SDS011;5929;51.906;7.674;2022-12-20T06:37:48;8.70;;;3.60;;
11743;SDS011;5929;51.906;7.674;2022-12-20T06:40:15;6.70;;;3.20;;
11743;SDS011;5929;51.906;7.674;2022-12-20T06:42:42;5.90;;;3.08;;
11743;SDS011;5929;51.906;7.674;2022-12-20T06:45:09;6.90;;;3.05;;
11743;SDS011;5929;51.906;7.674;2022-12-20T06:47:36;7.93;;;3.85;;
11743;SDS011;5929;51.906;7.674;2022-12-20T06:50:04;6.55;;;3.35;;
11743;SDS011;5929;51.906;7.674;2022-12-20T06:52:31;9.68;;;4.03;;
11743;SDS011;5929;51.906;7.674;2022-12-20T06:55:00;7.28;;;3.65;;
11743;SDS011;5929;51.906;7.674;2022-12-20T06:57:26;8.43;;;3.42;;
11743;SDS011;5929;51.906;7.674;2022-12-20T06:59:53;7.90;;;3.08;;
11743;SDS011;5929;51.906;7.674;2022-12-20T07:02:20;7.88;;;3.60;;
11743;SDS011;5929;51.906;7.674;2022-12-20T07:04:47;8.35;;;3.78;;
11743;SDS011;5929;51.906;7.674;2022-12-20T07:07:14;6.15;;;3.00;;
11743;SDS011;5929;51.906;7.674;2022-12-20T07:09:41;6.85;;;3.60;;
11743;SDS011;5929;51.906;7.674;2022-12-20T07:12:09;7.05;;;3.22;;
11743;SDS011;5929;51.906;7.674;2022-12-20T07:14:38;6.70;;;3.40;;
11743;SDS011;5929;51.906;7.674;2022-12-20T07:17:05;6.00;;;3.22;;
11743;SDS011;5929;51.906;7.674;2022-12-20T07:19:32;8.63;;;3.78;;
11743;SDS011;5929;51.906;7.674;2022-12-20T07:22:00;7.45;;;4.13;;
11743;SDS011;5929;51.906;7.674;2022-12-20T07:24:27;7.18;;;3.65;;
11743;SDS011;5929;51.906;7.674;2022-12-20T07:26:54;8.82;;;3.88;;
11743;SDS011;5929;51.906;7.674;2022-12-20T07:29:22;8.18;;;4.32;;
11743;SDS011;5929;51.906;7.674;2022-12-20T07:31:49;9.02;;;3.65;;
11743;SDS011;5929;51.906;7.674;2022-12-20T07:34:17;8.07;;;4.45;;
11743;SDS011;5929;51.906;7.674;2022-12-20T07:36:44;9.18;;;3.83;;
11743;SDS011;5929;51.906;7.674;2022-12-20T07:39:11;7.63;;;3.92;;
11743;SDS011;5929;51.906;7.674;2022-12-20T07:41:37;7.95;;;4.10;;
11743;SDS011;5929;51.906;7.674;2022-12-20T07:44:05;8.70;;;3.70;;
11743;SDS011;5929;51.906;7.674;2022-12-20T07:46:33;8.50;;;4.20;;
11743;SDS011;5929;51.906;7.674;2022-12-20T07:49:00;8.75;;;3.92;;
11743;SDS011;5929;51.906;7.674;2022-12-20T07:51:27;7.18;;;3.80;;
11743;SDS011;5929;51.906;7.674;2022-12-20T07:53:57;9.88;;;3.67;;
11743;SDS011;5929;51.906;7.674;2022-12-20T07:56:28;7.32;;;3.78;;
11743;SDS011;5929;51.906;7.674;2022-12-20T07:58:57;8.48;;;3.88;;
11743;SDS011;5929;51.906;7.674;2022-12-20T08:01:26;6.25;;;3.40;;
11743;SDS011;5929;51.906;7.674;2022-12-20T08:03:59;8.13;;;3.50;;
11743;SDS011;5929;51.906;7.674;2022-12-20T08:06:29;7.20;;;3.60;;
11743;SDS011;5929;51.906;7.674;2022-12-20T08:08:57;6.35;;;3.47;;
11743;SDS011;5929;51.906;7.674;2022-12-20T08:11:28;9.23;;;3.58;;
11743;SDS011;5929;51.906;7.674;2022-12-20T08:13:57;7.90;;;3.50;;
11743;SDS011;5929;51.906;7.674;2022-12-20T08:16:24;9.18;;;3.65;;
11743;SDS011;5929;51.906;7.674;2022-12-20T08:18:51;8.55;;;3.50;;
11743;SDS011;5929;51.906;7.674;2022-12-20T08:21:19;8.07;;;3.30;;
11743;SDS011;5929;51.906;7.674;2022-12-20T08:23:46;6.70;;;3.25;;
11743;SDS011;5929;51.906;7.674;2022-12-20T08:26:13;7.20;;;3.50;;
11743;SDS011;5929;51.906;7.674;2022-12-20T08:28:40;6.90;;;2.97;;
11743;SDS011;5929;51.906;7.674;2022-12-20T08:31:07;6.60;;;3.22;;
11743;SDS011;5929;51.906;7.674;2022-12-20T08:33:36;5.65;;;2.85;;
11743;SDS011;5929;51.906;7.674;2022-12-20T08:36:05;6.45;;;3.20;;
11743;SDS011;5929;51.906;7.674;2022-12-20T08:38:35;5.43;;;2.58;;
11743;SDS011;5929;51.906;7.674;2022-12-20T08:41:03;8.60;;;3.60;;
11743;SDS011;5929;51.906;7.674;2022-12-20T08:43:31;6.95;;;2.67;;
11743;SDS011;5929;51.906;7.674;2022-12-20T08:45:57;6.75;;;3.50;;
11743;SDS011;5929;51.906;7.674;2022-12-20T08:48:25;8.77;;;2.60;;
11743;SDS011;5929;51.906;7.674;2022-12-20T08:50:55;7.72;;;2.70;;
11743;SDS011;5929;51.906;7.674;2022-12-20T08:53:23;6.18;;;3.20;;
11743;SDS011;5929;51.906;7.674;2022-12-20T08:55:51;5.70;;;2.70;;
11743;SDS011;5929;51.906;7.674;2022-12-20T08:58:19;7.63;;;2.88;;
11743;SDS011;5929;51.906;7.674;2022-12-20T09:00:46;6.88;;;3.08;;
11743;SDS011;5929;51.906;7.674;2022-12-20T09:03:13;5.75;;;2.60;;
11743;SDS011;5929;51.906;7.674;2022-12-20T09:05:43;7.13;;;2.80;;
11743;SDS011;5929;51.906;7.674;2022-12-20T09:08:11;8.57;;;2.95;;
11743;SDS011;5929;51.906;7.674;2022-12-20T09:10:39;6.25;;;3.00;;
11743;SDS011;5929;51.906;7.674;2022-12-20T09:13:07;7.15;;;2.95;;
11743;SDS011;5929;51.906;7.674;2022-12-20T09:15:37;5.85;;;2.70;;
11743;SDS011;5929;51.906;7.674;2022-12-20T09:18:04;5.07;;;2.55;;
11743;SDS011;5929;51.906;7.674;2022-12-20T09:20:31;5.85;;;2.72;;
11743;SDS011;5929;51.906;7.674;2022-12-20T09:22:57;6.85;;;2.90;;
11743;SDS011;5929;51.906;7.674;2022-12-20T09:25:24;7.38;;;2.78;;
11743;SDS011;5929;51.906;7.674;2022-12-20T09:27:52;6.32;;;2.60;;
11743;SDS011;5929;51.906;7.674;2022-12-20T09:30:21;6.80;;;3.10;;
11743;SDS011;5929;51.906;7.674;2022-12-20T09:32:48;9.27;;;2.72;;
11743;SDS011;5929;51.906;7.674;2022-12-20T09:35:15;7.65;;;3.13;;
11743;SDS011;5929;51.906;7.674;2022-12-20T09:37:42;5.97;;;2.35;;
11743;SDS011;5929;51.906;7.674;2022-12-20T09:40:13;6.40;;;2.25;;
11743;SDS011;5929;51.906;7.674;2022-12-20T09:42:42;5.25;;;2.70;;
11743;SDS011;5929;51.906;7.674;2022-12-20T09:45:11;6.43;;;2.63;;
11743;SDS011;5929;51.906;7.674;2022-12-20T09:47:48;5.18;;;2.65;;
11743;SDS011;5929;51.906;7.674;2022-12-20T09:50:16;4.80;;;2.40;;
11743;SDS011;5929;51.906;7.674;2022-12-20T09:53:00;5.22;;;2.60;;
11743;SDS011;5929;51.906;7.674;2022-12-20T09:55:38;6.65;;;2.60;;
11743;SDS011;5929;51.906;7.674;2022-12-20T09:58:22;5.65;;;2.35;;
11743;SDS011;5929;51.906;7.674;2022-12-20T10:01:03;6.40;;;2.45;;
11743;SDS011;5929;51.906;7.674;2022-12-20T10:03:42;5.05;;;2.30;;
11743;SDS011;5929;51.906;7.674;2022-12-20T10:06:10;7.10;;;2.38;;
11743;SDS011;5929;51.906;7.674;2022-12-20T10:08:48;5.25;;;2.40;;
11743;SDS011;5929;51.906;7.674;2022-12-20T10:11:25;5.18;;;2.58;;
11743;SDS011;5929;51.906;7.674;2022-12-20T10:14:14;5.68;;;2.40;;
11743;SDS011;5929;51.906;7.674;2022-12-20T10:16:55;5.40;;;1.90;;
11743;SDS011;5929;51.906;7.674;2022-12-20T10:19:52;5.57;;;1.98;;
11743;SDS011;5929;51.906;7.674;2022-12-20T10:22:33;5.70;;;1.67;;
11743;SDS011;5929;51.906;7.674;2022-12-20T10:25:11;6.30;;;1.92;;
11743;SDS011;5929;51.906;7.674;2022-12-20T10:27:41;4.97;;;1.83;;
11743;SDS011;5929;51.906;7.674;2022-12-20T10:30:11;5.18;;;2.30;;
11743;SDS011;5929;51.906;7.674;2022-12-20T10:32:39;6.45;;;2.10;;
11743;SDS011;5929;51.906;7.674;2022-12-20T10:35:20;6.45;;;1.73;;
11743;SDS011;5929;51.906;7.674;2022-12-20T10:37:56;6.45;;;2.30;;
11743;SDS011;5929;51.906;7.674;2022-12-20T10:40:26;5.20;;;2.00;;
11743;SDS011;5929;51.906;7.674;2022-12-20T10:42:54;5.05;;;2.00;;
11743;SDS011;5929;51.906;7.674;2022-12-20T10:45:26;6.47;;;1.58;;
11743;SDS011;5929;51.906;7.674;2022-12-20T10:47:59;6.30;;;2.35;;
11743;SDS011;5929;51.906;7.674;2022-12-20T10:50:29;4.07;;;2.03;;
11743;SDS011;5929;51.906;7.674;2022-12-20T10:55:44;3.90;;;1.80;;
11743;SDS011;5929;51.906;7.674;2022-12-20T10:58:13;6.90;;;1.95;;
11743;SDS011;5929;51.906;7.674;2022-12-20T11:00:41;5.22;;;2.08;;
11743;SDS011;5929;51.906;7.674;2022-12-20T11:03:10;5.32;;;2.00;;
11743;SDS011;5929;51.906;7.674;2022-12-20T11:05:41;5.25;;;2.17;;
11743;SDS011;5929;51.906;7.674;2022-12-20T11:08:20;8.27;;;1.90;;
11743;SDS011;5929;51.906;7.674;2022-12-20T11:10:48;5.05;;;1.80;;
11743;SDS011;5929;51.906;7.674;2022-12-20T11:13:19;6.97;;;2.28;;
11743;SDS011;5929;51.906;7.674;2022-12-20T11:15:48;6.72;;;2.15;;
11743;SDS011;5929;51.906;7.674;2022-12-20T11:18:18;4.63;;;2.30;;
11743;SDS011;5929;51.906;7.674;2022-12-20T11:20:54;3.58;;;1.52;;
11743;SDS011;5929;51.906;7.674;2022-12-20T11:23:31;4.80;;;1.70;;
11743;SDS011;5929;51.906;7.674;2022-12-20T11:26:10;4.22;;;1.60;;
11743;SDS011;5929;51.906;7.674;2022-12-20T11:28:54;5.10;;;1.73;;
11743;SDS011;5929;51.906;7.674;2022-12-20T11:31:32;4.43;;;1.67;;
11743;SDS011;5929;51.906;7.674;2022-12-20T11:34:10;4.88;;;1.65;;
11743;SDS011;5929;51.906;7.674;2022-12-20T11:37:02;4.72;;;2.08;;
11743;SDS011;5929;51.906;7.674;2022-12-20T11:39:37;4.90;;;2.15;;
11743;SDS011;5929;51.906;7.674;2022-12-20T11:42:12;5.80;;;1.77;;
11743;SDS011;5929;51.906;7.674;2022-12-20T11:44:50;7.10;;;2.00;;
11743;SDS011;5929;51.906;7.674;2022-12-20T11:47:27;4.20;;;1.80;;
11743;SDS011;5929;51.906;7.674;2022-12-20T11:50:12;5.28;;;1.98;;
11743;SDS011;5929;51.906;7.674;2022-12-20T11:52:53;5.22;;;2.15;;
11743;SDS011;5929;51.906;7.674;2022-12-20T11:55:23;6.70;;;2.22;;
11743;SDS011;5929;51.906;7.674;2022-12-20T11:57:55;6.13;;;2.05;;
11743;SDS011;5929;51.906;7.674;2022-12-20T12:00:25;4.60;;;1.83;;
11743;SDS011;5929;51.906;7.674;2022-12-20T12:02:53;6.70;;;2.03;;
11743;SDS011;5929;51.906;7.674;2022-12-20T12:05:26;6.25;;;1.98;;
11743;SDS011;5929;51.906;7.674;2022-12-20T12:08:02;4.43;;;1.95;;
11743;SDS011;5929;51.906;7.674;2022-12-20T12:10:33;6.90;;;1.98;;
11743;SDS011;5929;51.906;7.674;2022-12-20T12:13:04;5.32;;;2.22;;
11743;SDS011;5929;51.906;7.674;2022-12-20T12:15:37;8.48;;;1.85;;
11743;SDS011;5929;51.906;7.674;2022-12-20T12:18:13;5.05;;;1.90;;
11743;SDS011;5929;51.906;7.674;2022-12-20T12:20:46;6.28;;;2.08;;
11743;SDS011;5929;51.906;7.674;2022-12-20T12:23:18;5.10;;;1.92;;
11743;SDS011;5929;51.906;7.674;2022-12-20T12:25:49;6.22;;;2.40;;
11743;SDS011;5929;51.906;7.674;2022-12-20T12:28:16;4.82;;;1.77;;
11743;SDS011;5929;51.906;7.674;2022-12-20T12:30:47;4.28;;;1.92;;
11743;SDS011;5929;51.906;7.674;2022-12-20T12:33:20;4.68;;;1.85;;
11743;SDS011;5929;51.906;7.674;2022-12-20T12:36:08;6.82;;;1.90;;
11743;SDS011;5929;51.906;7.674;2022-12-20T12:38:54;4.78;;;1.77;;
11743;SDS011;5929;51.906;7.674;2022-12-20T12:41:54;7.30;;;2.55;;
11743;SDS011;5929;51.906;7.674;2022-12-20T12:44:46;5.70;;;2.13;;
11743;SDS011;5929;51.906;7.674;2022-12-20T12:47:18;5.18;;;2.10;;
11743;SDS011;5929;51.906;7.674;2022-12-20T12:49:48;5.32;;;2.03;;
11743;SDS011;5929;51.906;7.674;2022-12-20T12:52:28;3.80;;;1.70;;
11743;SDS011;5929;51.906;7.674;2022-12-20T12:58:25;8.45;;;2.15;;
11743;SDS011;5929;51.906;7.674;2022-12-20T13:01:00;6.40;;;2.00;;
11743;SDS011;5929;51.906;7.674;2022-12-20T13:03:39;7.53;;;2.10;;
11743;SDS011;5929;51.906;7.674;2022-12-20T13:09:36;4.50;;;1.70;;
11743;SDS011;5929;51.906;7.674;2022-12-20T13:18:20;6.20;;;2.03;;
11743;SDS011;5929;51.906;7.674;2022-12-20T13:23:56;5.10;;;1.95;;
11743;SDS011;5929;51.906;7.674;2022-12-20T13:27:22;3.85;;;1.67;;
11743;SDS011;5929;51.906;7.674;2022-12-20T13:29:55;5.72;;;1.80;;
11743;SDS011;5929;51.906;7.674;2022-12-20T13:32:55;6.22;;;2.33;;
11743;SDS011;5929;51.906;7.674;2022-12-20T13:35:59;6.93;;;2.05;;
11743;SDS011;5929;51.906;7.674;2022-12-20T13:38:52;7.22;;;2.00;;
11743;SDS011;5929;51.906;7.674;2022-12-20T13:41:37;6.20;;;1.98;;
11743;SDS011;5929;51.906;7.674;2022-12-20T13:50:21;5.60;;;2.00;;
11743;SDS011;5929;51.906;7.674;2022-12-20T13:52:51;6.10;;;2.30;;
11743;SDS011;5929;51.906;7.674;2022-12-20T13:55:22;8.68;;;2.20;;
11743;SDS011;5929;51.906;7.674;2022-12-20T13:57:52;5.72;;;2.03;;
11743;SDS011;5929;51.906;7.674;2022-12-20T14:00:21;5.85;;;2.13;;
11743;SDS011;5929;51.906;7.674;2022-12-20T14:02:50;4.75;;;2.10;;
11743;SDS011;5929;51.906;7.674;2022-12-20T14:05:18;5.97;;;2.30;;
11743;SDS011;5929;51.906;7.674;2022-12-20T14:07:52;5.80;;;2.10;;
11743;SDS011;5929;51.906;7.674;2022-12-20T14:10:24;8.82;;;2.20;;
11743;SDS011;5929;51.906;7.674;2022-12-20T14:12:53;4.70;;;2.15;;
11743;SDS011;5929;51.906;7.674;2022-12-20T14:15:25;7.15;;;2.30;;
11743;SDS011;5929;51.906;7.674;2022-12-20T14:17:53;6.45;;;1.90;;
11743;SDS011;5929;51.906;7.674;2022-12-20T14:20:27;6.07;;;2.15;;
11743;SDS011;5929;51.906;7.674;2022-12-20T14:22:57;6.55;;;2.83;;
11743;SDS011;5929;51.906;7.674;2022-12-20T14:25:30;6.88;;;1.88;;
11743;SDS011;5929;51.906;7.674;2022-12-20T14:28:03;5.57;;;2.60;;
11743;SDS011;5929;51.906;7.674;2022-12-20T14:30:40;6.72;;;2.22;;
11743;SDS011;5929;51.906;7.674;2022-12-20T14:33:15;6.00;;;2.55;;
11743;SDS011;5929;51.906;7.674;2022-12-20T14:35:47;8.25;;;2.60;;
11743;SDS011;5929;51.906;7.674;2022-12-20T14:38:19;7.45;;;2.65;;
11743;SDS011;5929;51.906;7.674;2022-12-20T14:40:47;9.70;;;3.08;;
11743;SDS011;5929;51.906;7.674;2022-12-20T14:43:14;6.57;;;2.72;;
11743;SDS011;5929;51.906;7.674;2022-12-20T14:45:49;7.60;;;4.50;;
11743;SDS011;5929;51.906;7.674;2022-12-20T14:48:31;7.60;;;2.88;;
11743;SDS011;5929;51.906;7.674;2022-12-20T14:50:59;6.65;;;3.63;;
11743;SDS011;5929;51.906;7.674;2022-12-20T14:53:30;8.68;;;3.85;;
11743;SDS011;5929;51.906;7.674;2022-12-20T14:55:57;7.93;;;4.28;;
11743;SDS011;5929;51.906;7.674;2022-12-20T14:58:25;7.35;;;4.40;;
11743;SDS011;5929;51.906;7.674;2022-12-20T15:00:54;10.98;;;5.70;;
11743;SDS011;5929;51.906;7.674;2022-12-20T15:03:22;8.73;;;4.95;;
11743;SDS011;5929;51.906;7.674;2022-12-20T15:05:50;11.18;;;6.05;;
11743;SDS011;5929;51.906;7.674;2022-12-20T15:08:20;11.55;;;6.43;;
11743;SDS011;5929;51.906;7.674;2022-12-20T15:11:00;14.63;;;6.43;;
11743;SDS011;5929;51.906;7.674;2022-12-20T15:13:38;13.55;;;7.70;;
11743;SDS011;5929;51.906;7.674;2022-12-20T15:16:12;16.33;;;7.05;;
11743;SDS011;5929;51.906;7.674;2022-12-20T15:18:41;11.50;;;6.57;;
11743;SDS011;5929;51.906;7.674;2022-12-20T15:21:10;13.98;;;7.93;;
11743;SDS011;5929;51.906;7.674;2022-12-20T15:23:45;15.25;;;7.68;;
11743;SDS011;5929;51.906;7.674;2022-12-20T15:26:14;14.70;;;7.63;;
11743;SDS011;5929;51.906;7.674;2022-12-20T15:28:41;15.82;;;7.80;;
11743;SDS011;5929;51.906;7.674;2022-12-20T15:31:08;15.93;;;7.90;;
11743;SDS011;5929;51.906;7.674;2022-12-20T15:33:37;14.18;;;8.27;;
11743;SDS011;5929;51.906;7.674;2022-12-20T15:36:05;18.65;;;8.95;;
11743;SDS011;5929;51.906;7.674;2022-12-20T15:38:32;16.70;;;8.48;;
11743;SDS011;5929;51.906;7.674;2022-12-20T15:41:01;15.02;;;8.75;;
11743;SDS011;5929;51.906;7.674;2022-12-20T15:43:31;14.32;;;8.27;;
11743;SDS011;5929;51.906;7.674;2022-12-20T15:46:02;21.35;;;9.23;;
11743;SDS011;5929;51.906;7.674;2022-12-20T15:48:29;15.95;;;9.05;;
11743;SDS011;5929;51.906;7.674;2022-12-20T15:50:57;13.25;;;8.18;;
11743;SDS011;5929;51.906;7.674;2022-12-20T15:53:25;18.58;;;8.43;;
11743;SDS011;5929;51.906;7.674;2022-12-20T15:55:54;15.48;;;8.57;;
11743;SDS011;5929;51.906;7.674;2022-12-20T15:58:23;16.52;;;8.77;;
11743;SDS011;5929;51.906;7.674;2022-12-20T16:00:52;14.57;;;8.65;;
11743;SDS011;5929;51.906;7.674;2022-12-20T16:03:21;16.30;;;9.05;;
11743;SDS011;5929;51.906;7.674;2022-12-20T16:05:49;17.83;;;8.40;;
11743;SDS011;5929;51.906;7.674;2022-12-20T16:08:16;15.60;;;8.98;;
11743;SDS011;5929;51.906;7.674;2022-12-20T16:10:43;16.95;;;8.43;;
11743;SDS011;5929;51.906;7.674;2022-12-20T16:13:14;13.45;;;8.30;;
11743;SDS011;5929;51.906;7.674;2022-12-20T16:15:42;16.98;;;9.20;;
11743;SDS011;5929;51.906;7.674;2022-12-20T16:18:10;15.00;;;9.10;;
11743;SDS011;5929;51.906;7.674;2022-12-20T16:20:37;19.17;;;9.52;;
11743;SDS011;5929;51.906;7.674;2022-12-20T16:23:04;18.95;;;9.05;;
11743;SDS011;5929;51.906;7.674;2022-12-20T16:25:37;19.23;;;9.40;;
11743;SDS011;5929;51.906;7.674;2022-12-20T16:28:04;14.45;;;8.77;;
11743;SDS011;5929;51.906;7.674;2022-12-20T16:30:31;17.65;;;9.75;;
11743;SDS011;5929;51.906;7.674;2022-12-20T16:33:01;20.67;;;10.05;;
11743;SDS011;5929;51.906;7.674;2022-12-20T16:35:28;19.00;;;10.30;;
11743;SDS011;5929;51.906;7.674;2022-12-20T16:37:56;17.90;;;10.55;;
11743;SDS011;5929;51.906;7.674;2022-12-20T16:40:25;18.02;;;10.20;;
11743;SDS011;5929;51.906;7.674;2022-12-20T16:42:55;22.90;;;10.85;;
11743;SDS011;5929;51.906;7.674;2022-12-20T16:45:23;16.98;;;11.20;;
11743;SDS011;5929;51.906;7.674;2022-12-20T16:47:54;20.50;;;11.70;;
11743;SDS011;5929;51.906;7.674;2022-12-20T16:50:24;17.95;;;11.25;;
11743;SDS011;5929;51.906;7.674;2022-12-20T16:52:52;26.45;;;12.30;;
11743;SDS011;5929;51.906;7.674;2022-12-20T16:55:19;24.08;;;12.07;;
11743;SDS011;5929;51.906;7.674;2022-12-20T16:57:47;20.95;;;12.85;;
11743;SDS011;5929;51.906;7.674;2022-12-20T17:00:15;23.92;;;13.70;;
11743;SDS011;5929;51.906;7.674;2022-12-20T17:02:45;25.08;;;13.38;;
11743;SDS011;5929;51.906;7.674;2022-12-20T17:05:23;23.40;;;14.05;;
11743;SDS011;5929;51.906;7.674;2022-12-20T17:07:52;23.20;;;13.63;;
11743;SDS011;5929;51.906;7.674;2022-12-20T17:10:19;26.20;;;13.90;;
11743;SDS011;5929;51.906;7.674;2022-12-20T17:12:46;26.40;;;14.52;;
11743;SDS011;5929;51.906;7.674;2022-12-20T17:15:19;31.27;;;15.45;;
11743;SDS011;5929;51.906;7.674;2022-12-20T17:17:48;31.33;;;14.40;;
11743;SDS011;5929;51.906;7.674;2022-12-20T17:20:15;29.67;;;13.70;;
11743;SDS011;5929;51.906;7.674;2022-12-20T17:22:48;27.67;;;14.15;;
11743;SDS011;5929;51.906;7.674;2022-12-20T17:25:18;25.80;;;13.75;;
11743;SDS011;5929;51.906;7.674;2022-12-20T17:27:46;26.77;;;14.27;;
11743;SDS011;5929;51.906;7.674;2022-12-20T17:30:13;25.40;;;14.25;;
11743;SDS011;5929;51.906;7.674;2022-12-20T17:32:40;24.30;;;14.57;;
11743;SDS011;5929;51.906;7.674;2022-12-20T17:35:12;24.55;;;14.38;;
11743;SDS011;5929;51.906;7.674;2022-12-20T17:37:48;21.20;;;13.80;;
11743;SDS011;5929;51.906;7.674;2022-12-20T17:40:16;24.13;;;12.88;;
11743;SDS011;5929;51.906;7.674;2022-12-20T17:42:43;19.85;;;12.93;;
11743;SDS011;5929;51.906;7.674;2022-12-20T17:45:20;21.48;;;13.30;;
11743;SDS011;5929;51.906;7.674;2022-12-20T17:47:49;21.60;;;13.07;;